sensor_id;sensor_type;location;lat;lon;timestamp;pressure;altitude;pressure_sealevel;temperature;humidity
20620;BME280;10469;42.720;23.252;2022-08-03T00:00:49;94897.09;;;19.51;100.00
20620;BME280;10469;42.720;23.252;2022-08-03T00:03:14;94895.50;;;19.50;100.00
20620;BME280;10469;42.720;23.252;2022-08-03T00:05:39;94899.97;;;19.41;100.00
20620;BME280;10469;42.720;23.252;2022-08-03T00:08:05;94893.16;;;19.43;100.00
20620;BME280;10469;42.720;23.252;2022-08-03T00:10:31;94886.59;;;19.44;100.00
20620;BME280;10469;42.720;23.252;2022-08-03T00:12:57;94883.31;;;19.47;100.00
20620;BME280;10469;42.720;23.252;2022-08-03T00:15:22;94881.66;;;19.46;100.00
20620;BME280;10469;42.720;23.252;2022-08-03T00:17:47;94894.66;;;19.30;100.00
20620;BME280;10469;42.720;23.252;2022-08-03T00:20:13;94895.81;;;19.24;100.00
20620;BME280;10469;42.720;23.252;2022-08-03T00:22:38;94882.16;;;19.29;100.00
20620;BME280;10469;42.720;23.252;2022-08-03T00:25:04;94887.56;;;19.35;100.00
20620;BME280;10469;42.720;23.252;2022-08-03T00:27:30;94893.34;;;19.47;100.00
20620;BME280;10469;42.720;23.252;2022-08-03T00:29:55;94893.31;;;19.52;100.00
20620;BME280;10469;42.720;23.252;2022-08-03T00:32:21;94896.84;;;19.52;100.00
20620;BME280;10469;42.720;23.252;2022-08-03T00:34:46;94892.63;;;19.60;100.00
20620;BME280;10469;42.720;23.252;2022-08-03T00:37:11;94893.25;;;19.57;100.00
20620;BME280;10469;42.720;23.252;2022-08-03T00:39:37;94884.63;;;19.50;100.00
20620;BME280;10469;42.720;23.252;2022-08-03T00:42:03;94884.91;;;19.48;100.00
20620;BME280;10469;42.720;23.252;2022-08-03T00:44:29;94900.59;;;19.33;100.00
20620;BME280;10469;42.720;23.252;2022-08-03T00:46:55;94884.13;;;19.24;100.00
20620;BME280;10469;42.720;23.252;2022-08-03T00:57:07;94894.94;;;18.81;100.00
20620;BME280;10469;42.720;23.252;2022-08-03T00:59:32;94903.28;;;18.90;100.00
20620;BME280;10469;42.720;23.252;2022-08-03T01:01:58;94890.38;;;18.76;100.00
20620;BME280;10469;42.720;23.252;2022-08-03T01:04:24;94867.94;;;18.66;100.00
20620;BME280;10469;42.720;23.252;2022-08-03T01:09:56;94891.78;;;18.69;100.00
20620;BME280;10469;42.720;23.252;2022-08-03T01:12:31;94876.22;;;18.50;100.00
20620;BME280;10469;42.720;23.252;2022-08-03T01:15:09;94883.50;;;18.55;100.00
20620;BME280;10469;42.720;23.252;2022-08-03T01:20:43;94878.00;;;18.60;100.00
20620;BME280;10469;42.720;23.252;2022-08-03T01:23:20;94881.25;;;18.62;100.00
20620;BME280;10469;42.720;23.252;2022-08-03T01:28:32;94881.56;;;18.32;100.00
20620;BME280;10469;42.720;23.252;2022-08-03T01:31:06;94865.72;;;18.10;100.00
20620;BME280;10469;42.720;23.252;2022-08-03T01:33:41;94883.00;;;18.19;100.00
20620;BME280;10469;42.720;23.252;2022-08-03T01:36:13;94880.34;;;18.43;100.00
20620;BME280;10469;42.720;23.252;2022-08-03T01:38:43;94876.44;;;18.25;100.00
20620;BME280;10469;42.720;23.252;2022-08-03T01:41:19;94888.34;;;18.29;100.00
20620;BME280;10469;42.720;23.252;2022-08-03T01:43:47;94873.25;;;18.18;100.00
20620;BME280;10469;42.720;23.252;2022-08-03T01:46:14;94876.88;;;18.03;100.00
20620;BME280;10469;42.720;23.252;2022-08-03T01:48:42;94883.47;;;17.97;100.00
20620;BME280;10469;42.720;23.252;2022-08-03T01:51:09;94878.50;;;18.04;100.00
20620;BME280;10469;42.720;23.252;2022-08-03T01:53:37;94891.25;;;18.03;100.00
20620;BME280;10469;42.720;23.252;2022-08-03T01:56:07;94893.66;;;18.10;100.00
20620;BME280;10469;42.720;23.252;2022-08-03T01:58:34;94893.72;;;18.05;100.00
20620;BME280;10469;42.720;23.252;2022-08-03T02:01:02;94892.41;;;17.97;100.00
20620;BME280;10469;42.720;23.252;2022-08-03T02:03:31;94893.16;;;18.03;100.00
20620;BME280;10469;42.720;23.252;2022-08-03T02:05:59;94883.72;;;18.00;100.00
20620;BME280;10469;42.720;23.252;2022-08-03T02:08:26;94894.22;;;18.07;100.00
20620;BME280;10469;42.720;23.252;2022-08-03T02:10:56;94889.09;;;18.05;100.00
20620;BME280;10469;42.720;23.252;2022-08-03T02:13:23;94886.88;;;18.08;100.00
20620;BME280;10469;42.720;23.252;2022-08-03T02:15:49;94884.72;;;18.04;100.00
20620;BME280;10469;42.720;23.252;2022-08-03T02:18:17;94886.59;;;18.14;100.00
20620;BME280;10469;42.720;23.252;2022-08-03T02:20:44;94892.78;;;18.20;100.00
20620;BME280;10469;42.720;23.252;2022-08-03T02:23:10;94882.91;;;18.29;100.00
20620;BME280;10469;42.720;23.252;2022-08-03T02:25:42;94892.31;;;18.42;100.00
20620;BME280;10469;42.720;23.252;2022-08-03T02:28:17;94898.34;;;18.34;100.00
20620;BME280;10469;42.720;23.252;2022-08-03T02:30:45;94890.25;;;18.28;100.00
20620;BME280;10469;42.720;23.252;2022-08-03T02:33:18;94877.84;;;18.17;100.00
20620;BME280;10469;42.720;23.252;2022-08-03T02:35:47;94870.25;;;18.19;100.00
20620;BME280;10469;42.720;23.252;2022-08-03T02:38:15;94868.59;;;18.23;100.00
20620;BME280;10469;42.720;23.252;2022-08-03T02:40:43;94873.41;;;18.32;100.00
20620;BME280;10469;42.720;23.252;2022-08-03T02:43:16;94885.72;;;18.48;100.00
20620;BME280;10469;42.720;23.252;2022-08-03T02:45:45;94865.53;;;17.96;100.00
20620;BME280;10469;42.720;23.252;2022-08-03T02:48:15;94882.34;;;17.98;100.00
20620;BME280;10469;42.720;23.252;2022-08-03T02:50:43;94876.97;;;17.93;100.00
20620;BME280;10469;42.720;23.252;2022-08-03T02:53:11;94865.97;;;17.74;100.00
20620;BME280;10469;42.720;23.252;2022-08-03T02:55:38;94882.97;;;17.90;100.00
20620;BME280;10469;42.720;23.252;2022-08-03T02:58:05;94873.75;;;17.86;100.00
20620;BME280;10469;42.720;23.252;2022-08-03T03:00:32;94886.81;;;17.84;100.00
20620;BME280;10469;42.720;23.252;2022-08-03T03:03:01;94864.66;;;17.61;100.00
20620;BME280;10469;42.720;23.252;2022-08-03T03:05:29;94896.06;;;17.72;100.00
20620;BME280;10469;42.720;23.252;2022-08-03T03:07:56;94902.53;;;17.82;100.00
20620;BME280;10469;42.720;23.252;2022-08-03T03:10:22;94908.75;;;17.82;100.00
20620;BME280;10469;42.720;23.252;2022-08-03T03:12:54;94911.72;;;17.86;100.00
20620;BME280;10469;42.720;23.252;2022-08-03T03:15:22;94909.63;;;17.72;100.00
20620;BME280;10469;42.720;23.252;2022-08-03T03:17:49;94898.84;;;17.62;100.00
20620;BME280;10469;42.720;23.252;2022-08-03T03:20:16;94913.53;;;17.51;100.00
20620;BME280;10469;42.720;23.252;2022-08-03T03:22:42;94914.94;;;17.38;100.00
20620;BME280;10469;42.720;23.252;2022-08-03T03:25:09;94919.00;;;17.41;100.00
20620;BME280;10469;42.720;23.252;2022-08-03T03:27:35;94910.63;;;17.37;100.00
20620;BME280;10469;42.720;23.252;2022-08-03T03:30:02;94920.91;;;17.40;100.00
20620;BME280;10469;42.720;23.252;2022-08-03T03:32:28;94922.28;;;17.33;100.00
20620;BME280;10469;42.720;23.252;2022-08-03T03:34:55;94921.50;;;17.32;100.00
20620;BME280;10469;42.720;23.252;2022-08-03T03:37:21;94918.53;;;17.23;100.00
20620;BME280;10469;42.720;23.252;2022-08-03T03:39:46;94927.75;;;17.17;100.00
20620;BME280;10469;42.720;23.252;2022-08-03T03:42:12;94933.22;;;17.07;100.00
20620;BME280;10469;42.720;23.252;2022-08-03T03:44:37;94931.44;;;17.47;100.00
20620;BME280;10469;42.720;23.252;2022-08-03T03:47:03;94929.34;;;17.34;100.00
20620;BME280;10469;42.720;23.252;2022-08-03T03:49:30;94942.59;;;17.40;100.00
20620;BME280;10469;42.720;23.252;2022-08-03T03:51:56;94945.31;;;17.35;100.00
20620;BME280;10469;42.720;23.252;2022-08-03T03:54:22;94946.13;;;17.36;100.00
20620;BME280;10469;42.720;23.252;2022-08-03T03:56:47;94937.44;;;17.39;100.00
20620;BME280;10469;42.720;23.252;2022-08-03T03:59:13;94945.06;;;17.37;100.00
20620;BME280;10469;42.720;23.252;2022-08-03T04:01:38;94927.41;;;17.39;100.00
20620;BME280;10469;42.720;23.252;2022-08-03T04:04:04;94939.56;;;17.47;100.00
20620;BME280;10469;42.720;23.252;2022-08-03T04:06:48;94937.91;;;17.56;100.00
20620;BME280;10469;42.720;23.252;2022-08-03T04:09:35;94935.16;;;17.61;100.00
20620;BME280;10469;42.720;23.252;2022-08-03T04:12:22;94941.03;;;17.89;100.00
20620;BME280;10469;42.720;23.252;2022-08-03T04:14:53;94937.50;;;17.88;100.00
20620;BME280;10469;42.720;23.252;2022-08-03T04:17:22;94925.34;;;17.80;100.00
20620;BME280;10469;42.720;23.252;2022-08-03T04:19:52;94933.88;;;18.03;100.00
20620;BME280;10469;42.720;23.252;2022-08-03T04:22:25;94937.72;;;17.92;100.00
20620;BME280;10469;42.720;23.252;2022-08-03T04:24:56;94940.81;;;17.70;100.00
20620;BME280;10469;42.720;23.252;2022-08-03T04:27:27;94937.59;;;18.12;100.00
20620;BME280;10469;42.720;23.252;2022-08-03T04:29:56;94925.63;;;18.18;100.00
20620;BME280;10469;42.720;23.252;2022-08-03T04:32:22;94940.56;;;18.50;100.00
20620;BME280;10469;42.720;23.252;2022-08-03T04:34:51;94940.13;;;18.38;100.00
20620;BME280;10469;42.720;23.252;2022-08-03T04:37:25;94939.03;;;18.39;100.00
20620;BME280;10469;42.720;23.252;2022-08-03T04:39:53;94930.94;;;18.34;100.00
20620;BME280;10469;42.720;23.252;2022-08-03T04:42:22;94928.50;;;18.32;100.00
20620;BME280;10469;42.720;23.252;2022-08-03T04:44:49;94934.19;;;18.36;100.00
20620;BME280;10469;42.720;23.252;2022-08-03T04:47:15;94945.06;;;18.30;100.00
20620;BME280;10469;42.720;23.252;2022-08-03T04:49:41;94947.97;;;18.44;100.00
20620;BME280;10469;42.720;23.252;2022-08-03T04:52:07;94949.47;;;18.55;100.00
20620;BME280;10469;42.720;23.252;2022-08-03T04:54:44;94957.72;;;19.33;100.00
20620;BME280;10469;42.720;23.252;2022-08-03T04:57:10;94960.38;;;19.38;100.00
20620;BME280;10469;42.720;23.252;2022-08-03T04:59:36;94943.28;;;18.84;100.00
20620;BME280;10469;42.720;23.252;2022-08-03T05:02:02;94959.31;;;19.34;100.00
20620;BME280;10469;42.720;23.252;2022-08-03T05:04:27;94966.69;;;19.04;100.00
20620;BME280;10469;42.720;23.252;2022-08-03T05:06:53;94965.38;;;18.72;100.00
20620;BME280;10469;42.720;23.252;2022-08-03T05:09:18;94963.16;;;19.33;100.00
20620;BME280;10469;42.720;23.252;2022-08-03T05:11:44;94960.78;;;20.12;100.00
20620;BME280;10469;42.720;23.252;2022-08-03T05:14:10;94974.41;;;20.12;100.00
20620;BME280;10469;42.720;23.252;2022-08-03T05:16:35;94961.16;;;20.24;100.00
20620;BME280;10469;42.720;23.252;2022-08-03T05:19:01;94967.19;;;20.02;100.00
20620;BME280;10469;42.720;23.252;2022-08-03T05:21:26;94970.75;;;20.21;100.00
20620;BME280;10469;42.720;23.252;2022-08-03T05:23:52;94968.16;;;20.49;100.00
20620;BME280;10469;42.720;23.252;2022-08-03T05:26:17;94966.09;;;20.22;100.00
20620;BME280;10469;42.720;23.252;2022-08-03T05:28:43;94979.88;;;20.49;100.00
20620;BME280;10469;42.720;23.252;2022-08-03T05:31:08;94982.41;;;20.41;100.00
20620;BME280;10469;42.720;23.252;2022-08-03T05:33:34;94983.75;;;20.24;100.00
20620;BME280;10469;42.720;23.252;2022-08-03T05:36:01;94991.84;;;21.00;100.00
20620;BME280;10469;42.720;23.252;2022-08-03T05:38:26;94982.19;;;21.08;100.00
20620;BME280;10469;42.720;23.252;2022-08-03T05:40:52;94978.81;;;21.43;100.00
20620;BME280;10469;42.720;23.252;2022-08-03T05:43:17;94985.31;;;21.28;100.00
20620;BME280;10469;42.720;23.252;2022-08-03T05:45:43;94972.00;;;21.27;100.00
20620;BME280;10469;42.720;23.252;2022-08-03T05:48:08;94971.41;;;21.99;100.00
20620;BME280;10469;42.720;23.252;2022-08-03T05:50:34;94984.81;;;22.09;100.00
20620;BME280;10469;42.720;23.252;2022-08-03T05:53:00;94987.88;;;22.08;100.00
20620;BME280;10469;42.720;23.252;2022-08-03T05:55:26;94975.44;;;22.51;100.00
20620;BME280;10469;42.720;23.252;2022-08-03T05:57:51;94981.28;;;22.59;100.00
20620;BME280;10469;42.720;23.252;2022-08-03T06:00:17;94985.38;;;22.70;100.00
20620;BME280;10469;42.720;23.252;2022-08-03T06:02:43;94992.16;;;23.17;100.00
20620;BME280;10469;42.720;23.252;2022-08-03T06:05:09;94995.84;;;23.75;100.00
20620;BME280;10469;42.720;23.252;2022-08-03T06:07:35;94994.81;;;24.19;100.00
20620;BME280;10469;42.720;23.252;2022-08-03T06:10:01;94983.56;;;24.73;100.00
20620;BME280;10469;42.720;23.252;2022-08-03T06:12:27;94989.41;;;25.53;96.22
20620;BME280;10469;42.720;23.252;2022-08-03T06:14:53;94984.22;;;25.60;94.22
20620;BME280;10469;42.720;23.252;2022-08-03T06:17:18;94991.81;;;25.55;95.40
20620;BME280;10469;42.720;23.252;2022-08-03T06:19:44;94988.81;;;26.45;88.39
20620;BME280;10469;42.720;23.252;2022-08-03T06:22:09;94992.16;;;26.50;86.49
20620;BME280;10469;42.720;23.252;2022-08-03T06:24:35;94982.59;;;26.90;82.84
20620;BME280;10469;42.720;23.252;2022-08-03T06:27:00;94984.91;;;27.66;78.34
20620;BME280;10469;42.720;23.252;2022-08-03T06:29:26;94979.31;;;26.96;78.69
20620;BME280;10469;42.720;23.252;2022-08-03T06:31:51;94996.06;;;27.12;80.72
20620;BME280;10469;42.720;23.252;2022-08-03T06:34:17;94981.06;;;28.16;70.84
20620;BME280;10469;42.720;23.252;2022-08-03T06:36:42;94977.25;;;28.21;70.78
20620;BME280;10469;42.720;23.252;2022-08-03T06:39:08;94985.88;;;28.44;69.37
20620;BME280;10469;42.720;23.252;2022-08-03T06:41:33;94981.53;;;27.82;69.84
20620;BME280;10469;42.720;23.252;2022-08-03T06:43:59;94980.25;;;27.21;73.86
20620;BME280;10469;42.720;23.252;2022-08-03T06:46:24;94984.84;;;28.12;73.35
20620;BME280;10469;42.720;23.252;2022-08-03T06:48:50;94976.44;;;28.45;67.58
20620;BME280;10469;42.720;23.252;2022-08-03T06:51:15;94981.75;;;28.38;68.44
20620;BME280;10469;42.720;23.252;2022-08-03T06:53:41;94971.13;;;28.52;65.97
20620;BME280;10469;42.720;23.252;2022-08-03T06:56:09;94986.94;;;29.64;63.18
20620;BME280;10469;42.720;23.252;2022-08-03T06:58:35;94976.59;;;29.33;61.75
20620;BME280;10469;42.720;23.252;2022-08-03T07:01:00;94985.66;;;29.17;62.16
20620;BME280;10469;42.720;23.252;2022-08-03T07:03:26;94971.75;;;28.33;65.30
20620;BME280;10469;42.720;23.252;2022-08-03T07:05:52;94984.34;;;29.27;62.91
20620;BME280;10469;42.720;23.252;2022-08-03T07:08:17;94983.16;;;30.04;59.41
20620;BME280;10469;42.720;23.252;2022-08-03T07:10:44;94981.50;;;30.15;57.79
20620;BME280;10469;42.720;23.252;2022-08-03T07:13:10;94988.16;;;29.82;57.63
20620;BME280;10469;42.720;23.252;2022-08-03T07:15:36;94977.31;;;32.22;49.77
20620;BME280;10469;42.720;23.252;2022-08-03T07:18:02;94973.91;;;30.82;52.47
20620;BME280;10469;42.720;23.252;2022-08-03T07:20:28;94980.69;;;31.43;52.11
20620;BME280;10469;42.720;23.252;2022-08-03T07:22:54;94979.69;;;33.74;47.17
20620;BME280;10469;42.720;23.252;2022-08-03T07:25:20;94983.00;;;32.33;45.23
20620;BME280;10469;42.720;23.252;2022-08-03T07:27:46;94979.22;;;31.91;47.91
20620;BME280;10469;42.720;23.252;2022-08-03T07:30:13;94982.28;;;29.99;51.73
20620;BME280;10469;42.720;23.252;2022-08-03T07:32:39;94987.06;;;29.55;53.46
20620;BME280;10469;42.720;23.252;2022-08-03T07:35:06;94984.75;;;30.36;53.98
20620;BME280;10469;42.720;23.252;2022-08-03T07:37:32;94987.47;;;30.52;53.82
20620;BME280;10469;42.720;23.252;2022-08-03T07:40:02;94983.66;;;31.77;50.93
20620;BME280;10469;42.720;23.252;2022-08-03T07:42:29;94976.13;;;30.22;53.98
20620;BME280;10469;42.720;23.252;2022-08-03T07:44:55;94978.78;;;31.08;51.39
20620;BME280;10469;42.720;23.252;2022-08-03T07:47:22;94982.47;;;29.75;54.30
20620;BME280;10469;42.720;23.252;2022-08-03T07:49:48;94979.41;;;32.82;48.41
20620;BME280;10469;42.720;23.252;2022-08-03T07:52:14;94980.47;;;32.74;45.69
20620;BME280;10469;42.720;23.252;2022-08-03T07:54:58;94973.78;;;31.56;48.82
20620;BME280;10469;42.720;23.252;2022-08-03T07:57:23;94972.59;;;31.15;48.97
20620;BME280;10469;42.720;23.252;2022-08-03T07:59:49;94974.00;;;30.86;50.34
20620;BME280;10469;42.720;23.252;2022-08-03T08:02:14;94982.66;;;31.42;49.93
20620;BME280;10469;42.720;23.252;2022-08-03T08:04:40;94979.53;;;31.67;48.19
20620;BME280;10469;42.720;23.252;2022-08-03T08:07:06;94968.19;;;32.21;47.64
20620;BME280;10469;42.720;23.252;2022-08-03T08:09:32;94983.41;;;33.48;43.68
20620;BME280;10469;42.720;23.252;2022-08-03T08:11:58;94984.53;;;33.10;44.47
20620;BME280;10469;42.720;23.252;2022-08-03T08:14:24;94989.59;;;31.52;48.54
20620;BME280;10469;42.720;23.252;2022-08-03T08:16:49;94979.22;;;32.41;45.51
20620;BME280;10469;42.720;23.252;2022-08-03T08:19:16;94979.81;;;31.00;46.80
20620;BME280;10469;42.720;23.252;2022-08-03T08:21:42;94987.88;;;32.13;45.20
20620;BME280;10469;42.720;23.252;2022-08-03T08:24:08;94985.66;;;31.14;46.61
20620;BME280;10469;42.720;23.252;2022-08-03T08:26:34;94993.31;;;31.02;45.84
20620;BME280;10469;42.720;23.252;2022-08-03T08:28:59;94980.47;;;31.75;45.08
20620;BME280;10469;42.720;23.252;2022-08-03T08:31:25;94981.06;;;32.90;42.02
20620;BME280;10469;42.720;23.252;2022-08-03T08:33:51;94976.44;;;32.41;43.08
20620;BME280;10469;42.720;23.252;2022-08-03T08:36:16;94972.72;;;33.16;39.78
20620;BME280;10469;42.720;23.252;2022-08-03T08:38:42;94978.81;;;31.93;41.29
20620;BME280;10469;42.720;23.252;2022-08-03T08:41:10;94976.31;;;33.20;41.25
20620;BME280;10469;42.720;23.252;2022-08-03T08:43:36;94972.84;;;32.97;41.33
20620;BME280;10469;42.720;23.252;2022-08-03T08:46:02;94956.22;;;33.71;39.68
20620;BME280;10469;42.720;23.252;2022-08-03T08:48:30;94961.75;;;35.51;36.86
20620;BME280;10469;42.720;23.252;2022-08-03T08:50:56;94963.16;;;35.09;37.14
20620;BME280;10469;42.720;23.252;2022-08-03T08:53:25;94964.06;;;34.51;35.89
20620;BME280;10469;42.720;23.252;2022-08-03T08:55:54;94961.56;;;33.91;37.91
20620;BME280;10469;42.720;23.252;2022-08-03T08:58:23;94951.47;;;33.01;38.71
20620;BME280;10469;42.720;23.252;2022-08-03T09:00:50;94957.63;;;31.39;39.69
20620;BME280;10469;42.720;23.252;2022-08-03T09:03:16;94962.59;;;33.35;38.13
20620;BME280;10469;42.720;23.252;2022-08-03T09:05:42;94950.78;;;33.86;37.90
20620;BME280;10469;42.720;23.252;2022-08-03T09:08:08;94949.03;;;32.96;36.58
20620;BME280;10469;42.720;23.252;2022-08-03T09:10:33;94947.22;;;33.85;35.37
20620;BME280;10469;42.720;23.252;2022-08-03T09:12:59;94945.00;;;35.51;32.76
20620;BME280;10469;42.720;23.252;2022-08-03T09:15:30;94951.41;;;34.64;33.98
20620;BME280;10469;42.720;23.252;2022-08-03T09:18:01;94954.72;;;34.26;34.05
20620;BME280;10469;42.720;23.252;2022-08-03T09:20:31;94945.00;;;33.61;35.26
20620;BME280;10469;42.720;23.252;2022-08-03T09:22:59;94953.09;;;32.45;35.36
20620;BME280;10469;42.720;23.252;2022-08-03T09:28:06;94940.69;;;36.32;30.97
20620;BME280;10469;42.720;23.252;2022-08-03T09:30:33;94933.66;;;35.01;31.09
20620;BME280;10469;42.720;23.252;2022-08-03T09:33:07;94945.06;;;34.75;32.14
20620;BME280;10469;42.720;23.252;2022-08-03T09:35:39;94939.75;;;35.25;31.63
20620;BME280;10469;42.720;23.252;2022-08-03T09:40:34;94934.66;;;35.87;31.75
20620;BME280;10469;42.720;23.252;2022-08-03T09:43:00;94929.50;;;36.18;31.02
20620;BME280;10469;42.720;23.252;2022-08-03T09:45:26;94934.59;;;36.77;30.88
20620;BME280;10469;42.720;23.252;2022-08-03T09:47:52;94949.31;;;35.24;31.39
20620;BME280;10469;42.720;23.252;2022-08-03T09:50:18;94948.16;;;33.59;34.88
20620;BME280;10469;42.720;23.252;2022-08-03T09:52:43;94947.38;;;34.03;33.98
20620;BME280;10469;42.720;23.252;2022-08-03T09:55:13;94935.84;;;35.58;32.65
20620;BME280;10469;42.720;23.252;2022-08-03T09:57:39;94938.41;;;34.93;32.87
20620;BME280;10469;42.720;23.252;2022-08-03T10:00:23;94929.13;;;36.45;31.14
20620;BME280;10469;42.720;23.252;2022-08-03T10:02:48;94927.34;;;35.08;32.90
20620;BME280;10469;42.720;23.252;2022-08-03T10:05:14;94919.94;;;35.87;32.11
20620;BME280;10469;42.720;23.252;2022-08-03T10:07:46;94918.78;;;34.06;33.85
20620;BME280;10469;42.720;23.252;2022-08-03T10:10:13;94922.06;;;34.23;33.97
20620;BME280;10469;42.720;23.252;2022-08-03T10:12:40;94906.41;;;36.10;32.71
20620;BME280;10469;42.720;23.252;2022-08-03T10:15:07;94912.78;;;36.14;31.43
20620;BME280;10469;42.720;23.252;2022-08-03T10:17:33;94915.78;;;35.06;33.11
20620;BME280;10469;42.720;23.252;2022-08-03T10:19:59;94907.19;;;37.45;30.31
20620;BME280;10469;42.720;23.252;2022-08-03T10:22:31;94915.56;;;37.45;30.03
20620;BME280;10469;42.720;23.252;2022-08-03T10:25:08;94903.72;;;34.80;33.29
20620;BME280;10469;42.720;23.252;2022-08-03T10:27:38;94910.88;;;33.67;35.00
20620;BME280;10469;42.720;23.252;2022-08-03T10:30:06;94904.66;;;33.03;37.13
20620;BME280;10469;42.720;23.252;2022-08-03T10:32:43;94906.97;;;33.31;36.14
20620;BME280;10469;42.720;23.252;2022-08-03T10:35:18;94905.06;;;32.15;37.91
20620;BME280;10469;42.720;23.252;2022-08-03T10:37:51;94906.72;;;32.46;36.82
20620;BME280;10469;42.720;23.252;2022-08-03T10:40:21;94911.94;;;31.98;38.17
20620;BME280;10469;42.720;23.252;2022-08-03T10:42:48;94912.31;;;31.73;39.85
20620;BME280;10469;42.720;23.252;2022-08-03T10:45:19;94903.09;;;32.42;39.08
20620;BME280;10469;42.720;23.252;2022-08-03T10:47:46;94900.31;;;34.39;35.72
20620;BME280;10469;42.720;23.252;2022-08-03T10:50:12;94902.31;;;35.26;34.51
20620;BME280;10469;42.720;23.252;2022-08-03T10:52:57;94897.47;;;33.77;33.88
20620;BME280;10469;42.720;23.252;2022-08-03T10:55:37;94905.47;;;31.90;37.44
20620;BME280;10469;42.720;23.252;2022-08-03T11:01:06;94886.06;;;31.21;39.17
20620;BME280;10469;42.720;23.252;2022-08-03T11:03:32;94888.19;;;31.28;39.43
20620;BME280;10469;42.720;23.252;2022-08-03T11:06:24;94888.34;;;32.64;37.65
20620;BME280;10469;42.720;23.252;2022-08-03T11:11:37;94888.88;;;34.58;33.96
20620;BME280;10469;42.720;23.252;2022-08-03T11:14:06;94873.81;;;34.59;34.09
20620;BME280;10469;42.720;23.252;2022-08-03T11:16:35;94881.66;;;35.69;33.49
20620;BME280;10469;42.720;23.252;2022-08-03T11:19:04;94876.69;;;34.81;34.35
20620;BME280;10469;42.720;23.252;2022-08-03T11:40:47;94860.91;;;35.38;32.77
20620;BME280;10469;42.720;23.252;2022-08-03T11:48:33;94855.84;;;34.50;33.41
20620;BME280;10469;42.720;23.252;2022-08-03T11:51:03;94858.56;;;32.95;36.08
20620;BME280;10469;42.720;23.252;2022-08-03T11:53:29;94855.19;;;33.12;36.82
20620;BME280;10469;42.720;23.252;2022-08-03T12:05:47;94866.91;;;30.70;42.68
20620;BME280;10469;42.720;23.252;2022-08-03T12:08:17;94867.91;;;30.23;43.57
20620;BME280;10469;42.720;23.252;2022-08-03T12:10:50;94864.56;;;30.92;42.71
20620;BME280;10469;42.720;23.252;2022-08-03T12:13:17;94861.66;;;29.44;44.64
20620;BME280;10469;42.720;23.252;2022-08-03T12:15:43;94873.97;;;29.15;45.36
20620;BME280;10469;42.720;23.252;2022-08-03T12:18:16;94857.25;;;28.95;47.70
20620;BME280;10469;42.720;23.252;2022-08-03T12:20:43;94851.25;;;29.37;47.31
20620;BME280;10469;42.720;23.252;2022-08-03T12:23:11;94851.41;;;29.76;46.81
20620;BME280;10469;42.720;23.252;2022-08-03T12:25:38;94861.03;;;30.17;45.41
20620;BME280;10469;42.720;23.252;2022-08-03T12:28:11;94860.06;;;29.11;48.38
20620;BME280;10469;42.720;23.252;2022-08-03T12:30:38;94850.00;;;30.37;46.02
20620;BME280;10469;42.720;23.252;2022-08-03T12:35:46;94839.94;;;30.87;43.67
20620;BME280;10469;42.720;23.252;2022-08-03T12:38:11;94847.19;;;30.95;44.12
20620;BME280;10469;42.720;23.252;2022-08-03T12:40:38;94850.00;;;30.37;45.12
20620;BME280;10469;42.720;23.252;2022-08-03T12:43:11;94844.78;;;30.32;46.15
20620;BME280;10469;42.720;23.252;2022-08-03T12:45:37;94845.91;;;30.89;44.18
20620;BME280;10469;42.720;23.252;2022-08-03T12:48:07;94841.59;;;29.79;46.59
20620;BME280;10469;42.720;23.252;2022-08-03T12:50:35;94846.38;;;29.62;48.73
20620;BME280;10469;42.720;23.252;2022-08-03T12:53:04;94855.97;;;29.68;47.96
20620;BME280;10469;42.720;23.252;2022-08-03T12:55:30;94851.59;;;29.52;46.55
20620;BME280;10469;42.720;23.252;2022-08-03T12:58:03;94833.19;;;29.91;46.80
20620;BME280;10469;42.720;23.252;2022-08-03T13:00:30;94833.41;;;30.76;44.79
20620;BME280;10469;42.720;23.252;2022-08-03T13:03:03;94824.72;;;30.38;44.93
20620;BME280;10469;42.720;23.252;2022-08-03T13:05:30;94831.81;;;30.36;45.28
20620;BME280;10469;42.720;23.252;2022-08-03T13:07:57;94827.44;;;29.64;47.63
20620;BME280;10469;42.720;23.252;2022-08-03T13:10:40;94823.81;;;29.60;48.66
20620;BME280;10469;42.720;23.252;2022-08-03T13:13:07;94815.31;;;29.53;48.01
20620;BME280;10469;42.720;23.252;2022-08-03T13:15:33;94824.94;;;29.75;50.80
20620;BME280;10469;42.720;23.252;2022-08-03T13:17:58;94816.44;;;30.58;48.58
20620;BME280;10469;42.720;23.252;2022-08-03T13:20:24;94820.31;;;29.98;49.04
20620;BME280;10469;42.720;23.252;2022-08-03T13:22:50;94819.47;;;29.28;52.23
20620;BME280;10469;42.720;23.252;2022-08-03T13:25:15;94820.31;;;29.00;53.14
20620;BME280;10469;42.720;23.252;2022-08-03T13:27:41;94820.50;;;29.39;51.29
20620;BME280;10469;42.720;23.252;2022-08-03T13:30:07;94819.34;;;29.56;50.95
20620;BME280;10469;42.720;23.252;2022-08-03T13:32:34;94822.66;;;29.30;52.13
20620;BME280;10469;42.720;23.252;2022-08-03T13:35:00;94819.59;;;30.02;50.65
20620;BME280;10469;42.720;23.252;2022-08-03T13:37:27;94825.06;;;29.63;51.52
20620;BME280;10469;42.720;23.252;2022-08-03T13:39:53;94814.00;;;29.63;51.99
20620;BME280;10469;42.720;23.252;2022-08-03T13:42:18;94824.88;;;29.24;52.88
20620;BME280;10469;42.720;23.252;2022-08-03T13:44:44;94831.13;;;29.21;54.65
20620;BME280;10469;42.720;23.252;2022-08-03T13:47:10;94814.28;;;28.66;57.95
20620;BME280;10469;42.720;23.252;2022-08-03T13:49:36;94828.88;;;29.27;58.46
20620;BME280;10469;42.720;23.252;2022-08-03T13:52:02;94823.28;;;29.07;59.94